createdAt,value
2022-08-21T00:00:04.737Z,18.18
2022-08-21T00:01:04.755Z,18.16
2022-08-21T00:02:04.843Z,18.15
2022-08-21T00:03:04.720Z,18.16
2022-08-21T00:04:04.757Z,18.15
2022-08-21T00:05:04.696Z,18.13
2022-08-21T00:06:04.674Z,18.13
2022-08-21T00:07:04.671Z,18.15
2022-08-21T00:08:04.661Z,18.15
2022-08-21T00:09:06.760Z,18.16
2022-08-21T00:10:04.682Z,18.16
2022-08-21T00:11:04.610Z,18.16
2022-08-21T00:12:04.625Z,18.16
2022-08-21T00:13:04.600Z,18.16
2022-08-21T00:14:04.638Z,18.18
2022-08-21T00:15:04.577Z,18.19
2022-08-21T00:16:04.567Z,18.19
2022-08-21T00:17:04.555Z,18.19
2022-08-21T00:18:04.535Z,18.19
2022-08-21T00:19:04.575Z,18.16
2022-08-21T00:20:04.529Z,18.15
2022-08-21T00:21:04.490Z,18.16
2022-08-21T00:22:04.471Z,18.16
2022-08-21T00:23:04.467Z,18.18
2022-08-21T00:24:04.547Z,18.18
2022-08-21T00:25:04.456Z,18.18
2022-08-21T00:26:04.455Z,18.16
2022-08-21T00:27:04.438Z,18.15
2022-08-21T00:28:04.418Z,18.13
2022-08-21T00:29:04.452Z,18.13
2022-08-21T00:30:04.410Z,18.13
2022-08-21T00:31:04.404Z,18.13
2022-08-21T00:32:04.381Z,18.15
2022-08-21T00:33:04.376Z,18.13
2022-08-21T00:34:04.395Z,18.15
2022-08-21T00:35:04.333Z,18.15
2022-08-21T00:36:04.347Z,18.13
2022-08-21T00:37:04.315Z,18.15
2022-08-21T00:38:04.317Z,18.15
2022-08-21T00:39:04.331Z,18.15
2022-08-21T00:40:04.361Z,18.16
2022-08-21T00:41:36.726Z,18.18
2022-08-21T00:42:05.258Z,18.18
2022-08-21T00:43:04.239Z,18.19
2022-08-21T00:44:04.296Z,18.19
2022-08-21T00:45:04.220Z,18.19
2022-08-21T00:46:04.236Z,18.16
2022-08-21T00:47:04.206Z,18.16
2022-08-21T00:48:04.206Z,18.16
2022-08-21T00:49:04.220Z,18.13
2022-08-21T00:50:04.183Z,18.13
2022-08-21T00:51:04.155Z,18.13
2022-08-21T00:52:04.149Z,18.11
2022-08-21T00:53:04.128Z,18.11
2022-08-21T00:54:04.159Z,18.11
2022-08-21T00:55:04.109Z,18.11
2022-08-21T00:56:04.111Z,18.10
2022-08-21T00:57:04.097Z,18.10
2022-08-21T00:58:04.092Z,18.08
2022-08-21T00:59:04.104Z,18.07
2022-08-21T01:00:04.068Z,18.05
2022-08-21T01:01:08.506Z,18.03
2022-08-21T01:02:05.063Z,18.04
2022-08-21T01:03:07.297Z,18.04
2022-08-21T01:04:05.051Z,18.03
2022-08-21T01:05:04.030Z,18.05
2022-08-21T01:06:03.989Z,18.05
2022-08-21T01:07:03.988Z,18.04
2022-08-21T01:08:03.978Z,18.04
2022-08-21T01:09:04.009Z,18.04
2022-08-21T01:10:03.949Z,18.05
2022-08-21T01:11:03.970Z,18.07
2022-08-21T01:12:03.938Z,18.10
2022-08-21T01:13:03.914Z,18.11
2022-08-21T01:14:03.950Z,18.10
2022-08-21T01:15:03.894Z,18.10
2022-08-21T01:16:03.888Z,18.10
2022-08-21T01:17:03.888Z,18.11
2022-08-21T01:18:03.869Z,18.11
2022-08-21T01:19:03.905Z,18.11
2022-08-21T01:20:03.846Z,18.10
2022-08-21T01:21:03.839Z,18.11
2022-08-21T01:22:03.812Z,18.10
2022-08-21T01:23:03.798Z,18.11
2022-08-21T01:24:03.829Z,18.10
2022-08-21T01:25:03.774Z,18.13
2022-08-21T01:26:03.775Z,18.13
2022-08-21T01:27:03.757Z,18.13
2022-08-21T01:28:03.759Z,18.11
2022-08-21T01:29:03.777Z,18.11
2022-08-21T01:30:06.395Z,18.10
2022-08-21T01:31:03.713Z,18.10
2022-08-21T01:32:03.706Z,18.11
2022-08-21T01:33:03.689Z,18.13
2022-08-21T01:34:03.718Z,18.11
2022-08-21T01:35:03.678Z,18.10
2022-08-21T01:36:03.677Z,18.10
2022-08-21T01:37:03.649Z,18.13
2022-08-21T01:38:03.636Z,18.13
2022-08-21T01:39:03.673Z,18.15
2022-08-21T01:40:03.731Z,18.15
2022-08-21T01:41:03.592Z,18.16
2022-08-21T01:42:03.599Z,18.18
2022-08-21T01:43:03.574Z,18.18
2022-08-21T01:44:03.626Z,18.16
2022-08-21T01:45:03.557Z,18.18
2022-08-21T01:46:03.547Z,18.18
2022-08-21T01:47:03.529Z,18.16
2022-08-21T01:48:03.521Z,18.16
2022-08-21T01:49:03.556Z,18.16
2022-08-21T01:50:03.498Z,18.18
2022-08-21T01:51:03.497Z,18.19
2022-08-21T01:52:03.485Z,18.18
2022-08-21T01:53:03.484Z,18.18
2022-08-21T01:54:03.491Z,18.18
2022-08-21T01:55:03.425Z,18.19
2022-08-21T01:56:03.420Z,18.20
2022-08-21T01:57:03.412Z,18.20
2022-08-21T01:58:03.447Z,18.20
2022-08-21T01:59:03.435Z,18.20
2022-08-21T02:00:03.397Z,18.20
2022-08-21T02:01:03.430Z,18.19
2022-08-21T02:02:03.363Z,18.19
2022-08-21T02:03:03.349Z,18.20
2022-08-21T02:04:03.376Z,18.20
2022-08-21T02:05:03.331Z,18.23
2022-08-21T02:06:03.331Z,18.23
2022-08-21T02:07:03.300Z,18.20
2022-08-21T02:08:03.299Z,18.20
2022-08-21T02:09:03.318Z,18.22
2022-08-21T02:10:03.267Z,18.20
2022-08-21T02:11:03.254Z,18.22
2022-08-21T02:12:03.248Z,18.19
2022-08-21T02:13:03.228Z,18.22
2022-08-21T02:14:03.269Z,18.22
2022-08-21T02:15:03.206Z,18.22
2022-08-21T02:16:03.197Z,18.22
2022-08-21T02:17:05.483Z,18.23
2022-08-21T02:18:04.177Z,18.22
2022-08-21T02:19:03.718Z,18.20
2022-08-21T02:20:03.156Z,18.20
2022-08-21T02:21:03.137Z,18.20
2022-08-21T02:22:03.145Z,18.20
2022-08-21T02:23:03.104Z,18.22
2022-08-21T02:24:03.151Z,18.23
2022-08-21T02:25:03.102Z,18.23
2022-08-21T02:26:03.085Z,18.22
2022-08-21T02:27:03.049Z,18.22
2022-08-21T02:28:03.054Z,18.23
2022-08-21T02:29:03.085Z,18.23
2022-08-21T02:30:03.039Z,18.23
2022-08-21T02:31:03.026Z,18.23
2022-08-21T02:32:03.027Z,18.25
2022-08-21T02:33:03.007Z,18.25
2022-08-21T02:34:03.026Z,18.23
2022-08-21T02:35:02.971Z,18.23
2022-08-21T02:36:02.962Z,18.25
2022-08-21T02:37:02.949Z,18.25
2022-08-21T02:38:02.946Z,18.23
2022-08-21T02:39:02.976Z,18.23
2022-08-21T02:40:02.967Z,18.23
2022-08-21T02:41:02.897Z,18.23
2022-08-21T02:42:02.896Z,18.23
2022-08-21T02:43:02.911Z,18.23
2022-08-21T02:44:02.910Z,18.23
2022-08-21T02:45:02.892Z,18.23
2022-08-21T02:46:02.844Z,18.25
2022-08-21T02:47:02.839Z,18.23
2022-08-21T02:48:02.834Z,18.25
2022-08-21T02:49:02.849Z,18.23
2022-08-21T02:50:02.804Z,18.22
2022-08-21T02:51:02.794Z,18.20
2022-08-21T02:52:02.792Z,18.20
2022-08-21T02:53:02.768Z,18.20
2022-08-21T02:54:02.812Z,18.20
2022-08-21T02:55:02.742Z,18.22
2022-08-21T02:56:02.739Z,18.22
2022-08-21T02:57:02.819Z,18.22
2022-08-21T02:58:02.715Z,18.22
2022-08-21T02:59:02.682Z,18.22
2022-08-21T03:00:02.726Z,18.22
2022-08-21T03:01:02.682Z,18.23
2022-08-21T03:02:02.746Z,18.20
2022-08-21T03:03:02.650Z,18.22
2022-08-21T03:04:02.656Z,18.22
2022-08-21T03:05:02.684Z,18.20
2022-08-21T03:06:02.622Z,18.20
2022-08-21T03:07:02.614Z,18.20
2022-08-21T03:08:02.599Z,18.20
2022-08-21T03:09:02.585Z,18.19
2022-08-21T03:10:02.615Z,18.18
2022-08-21T03:11:02.574Z,18.16
2022-08-21T03:12:02.551Z,18.13
2022-08-21T03:13:02.566Z,18.08
2022-08-21T03:14:02.533Z,18.05
2022-08-21T03:15:02.602Z,18.03
2022-08-21T03:16:02.525Z,17.98
2022-08-21T03:17:02.507Z,17.98
2022-08-21T03:18:02.493Z,17.94
2022-08-21T03:19:02.477Z,17.94
2022-08-21T03:20:02.543Z,17.89
2022-08-21T03:21:02.458Z,17.87
2022-08-21T03:22:02.446Z,17.86
2022-08-21T03:23:02.506Z,17.86
2022-08-21T03:24:03.610Z,17.85
2022-08-21T03:25:06.755Z,17.85
2022-08-21T03:26:02.400Z,17.80
2022-08-21T03:27:02.408Z,17.80
2022-08-21T03:28:02.372Z,17.79
2022-08-21T03:29:03.229Z,17.74
2022-08-21T03:30:02.345Z,17.72
2022-08-21T03:31:02.347Z,17.68
2022-08-21T03:32:02.375Z,17.67
2022-08-21T03:33:02.332Z,17.64
2022-08-21T03:34:02.353Z,17.64
2022-08-21T03:35:02.304Z,17.63
2022-08-21T03:36:02.337Z,17.63
2022-08-21T03:37:02.304Z,17.59
2022-08-21T03:38:02.261Z,17.59
2022-08-21T03:39:02.303Z,17.56
2022-08-21T03:40:02.324Z,17.56
2022-08-21T03:41:02.249Z,17.56
2022-08-21T03:42:02.217Z,17.56
2022-08-21T03:43:02.213Z,17.54
2022-08-21T03:44:02.255Z,17.56
2022-08-21T03:45:02.210Z,17.57
2022-08-21T03:46:02.219Z,17.54
2022-08-21T03:47:02.172Z,17.54
2022-08-21T03:48:02.161Z,17.52
2022-08-21T03:49:02.199Z,17.51
2022-08-21T03:50:02.142Z,17.51
2022-08-21T03:51:02.141Z,17.49
2022-08-21T03:52:02.105Z,17.48
2022-08-21T03:53:02.114Z,17.49
2022-08-21T03:54:02.135Z,17.48
2022-08-21T03:55:02.090Z,17.46
2022-08-21T03:56:02.062Z,17.44
2022-08-21T03:57:02.083Z,17.44
2022-08-21T03:58:02.049Z,17.44
2022-08-21T03:59:03.086Z,17.44
2022-08-21T04:00:02.030Z,17.42
2022-08-21T04:01:02.013Z,17.41
2022-08-21T04:02:02.066Z,17.42
2022-08-21T04:03:01.997Z,17.44
2022-08-21T04:04:02.031Z,17.42
2022-08-21T04:05:01.983Z,17.42
2022-08-21T04:06:01.965Z,17.46
2022-08-21T04:07:01.944Z,17.45
2022-08-21T04:08:01.945Z,17.46
2022-08-21T04:09:01.981Z,17.46
2022-08-21T04:10:01.914Z,17.46
2022-08-21T04:11:01.917Z,17.46
2022-08-21T04:12:01.899Z,17.44
2022-08-21T04:13:01.885Z,17.44
2022-08-21T04:14:01.940Z,17.44
2022-08-21T04:15:01.874Z,17.42
2022-08-21T04:16:01.853Z,17.42
2022-08-21T04:17:01.844Z,17.44
2022-08-21T04:18:01.861Z,17.42
2022-08-21T04:19:01.894Z,17.42
2022-08-21T04:20:01.816Z,17.41
2022-08-21T04:21:01.864Z,17.42
2022-08-21T04:22:01.784Z,17.41
2022-08-21T04:23:01.781Z,17.44
2022-08-21T04:24:01.794Z,17.42
2022-08-21T04:25:01.759Z,17.42
2022-08-21T04:26:01.734Z,17.42
2022-08-21T04:27:01.726Z,17.42
2022-08-21T04:28:01.719Z,17.42
2022-08-21T04:29:01.811Z,17.41
2022-08-21T04:30:01.698Z,17.42
2022-08-21T04:31:01.694Z,17.42
2022-08-21T04:32:01.657Z,17.42
2022-08-21T04:33:01.742Z,17.41
2022-08-21T04:34:01.636Z,17.41
2022-08-21T04:35:01.674Z,17.39
2022-08-21T04:36:01.613Z,17.39
2022-08-21T04:37:01.630Z,17.42
2022-08-21T04:38:01.596Z,17.41
2022-08-21T04:39:01.589Z,17.41
2022-08-21T04:40:01.662Z,17.42
2022-08-21T04:41:01.571Z,17.42
2022-08-21T04:42:01.554Z,17.44
2022-08-21T04:43:01.558Z,17.44
2022-08-21T04:44:01.589Z,17.45
2022-08-21T04:45:01.517Z,17.45
2022-08-21T04:46:01.508Z,17.46
2022-08-21T04:47:01.501Z,17.48
2022-08-21T04:48:01.489Z,17.48
2022-08-21T04:49:01.521Z,17.51
2022-08-21T04:50:01.496Z,17.49
2022-08-21T04:51:01.447Z,17.52
2022-08-21T04:52:01.451Z,17.51
2022-08-21T04:53:01.431Z,17.56
2022-08-21T04:54:01.476Z,17.56
2022-08-21T04:55:01.412Z,17.57
2022-08-21T04:56:01.394Z,17.59
2022-08-21T04:57:01.394Z,17.60
2022-08-21T04:58:01.362Z,17.63
2022-08-21T04:59:01.425Z,17.63
2022-08-21T05:00:01.356Z,17.65
2022-08-21T05:01:01.349Z,17.67
2022-08-21T05:02:01.385Z,17.70
2022-08-21T05:03:01.314Z,17.68
2022-08-21T05:04:01.286Z,17.68
2022-08-21T05:05:01.354Z,17.70
2022-08-21T05:06:01.277Z,17.71
2022-08-21T05:07:01.279Z,17.72
2022-08-21T05:08:01.249Z,17.74
2022-08-21T05:09:02.132Z,17.78
2022-08-21T05:10:01.275Z,17.78
2022-08-21T05:11:01.220Z,17.80
2022-08-21T05:12:01.206Z,17.80
2022-08-21T05:13:01.194Z,17.83
2022-08-21T05:14:01.178Z,17.83
2022-08-21T05:15:01.221Z,17.85
2022-08-21T05:16:01.171Z,17.87
2022-08-21T05:17:01.155Z,17.89
2022-08-21T05:18:01.538Z,17.90
2022-08-21T05:19:01.155Z,17.94
2022-08-21T05:20:01.126Z,17.95
2022-08-21T05:21:01.124Z,17.98
2022-08-21T05:22:01.083Z,18.00
2022-08-21T05:23:01.137Z,18.03
2022-08-21T05:24:01.108Z,18.04
2022-08-21T05:25:01.056Z,18.05
2022-08-21T05:26:01.058Z,18.07
2022-08-21T05:27:01.035Z,18.07
2022-08-21T05:28:01.028Z,18.10
2022-08-21T05:29:01.049Z,18.10
2022-08-21T05:30:00.995Z,18.10
2022-08-21T05:31:00.999Z,18.15
2022-08-21T05:32:00.969Z,18.16
2022-08-21T05:33:01.045Z,18.20
2022-08-21T05:34:00.951Z,18.22
2022-08-21T05:35:00.969Z,18.23
2022-08-21T05:36:00.919Z,18.23
2022-08-21T05:37:04.336Z,18.26
2022-08-21T05:38:01.890Z,18.31
2022-08-21T05:39:00.902Z,18.35
2022-08-21T05:40:20.534Z,18.40
2022-08-21T05:41:01.951Z,18.41
2022-08-21T05:42:00.847Z,18.41
2022-08-21T05:43:01.141Z,18.44
2022-08-21T05:44:00.936Z,18.45
2022-08-21T05:45:00.874Z,18.52
2022-08-21T05:46:00.811Z,18.58
2022-08-21T05:47:00.799Z,18.58
2022-08-21T05:48:00.788Z,18.60
2022-08-21T05:49:00.773Z,18.66
2022-08-21T05:50:00.809Z,18.71
2022-08-21T05:51:00.754Z,18.68
2022-08-21T05:52:00.771Z,18.71
2022-08-21T05:53:06.894Z,18.77
2022-08-21T05:54:01.722Z,18.77
2022-08-21T05:55:00.750Z,18.74
2022-08-21T05:56:00.689Z,18.75
2022-08-21T05:57:00.680Z,18.74
2022-08-21T05:58:00.667Z,18.75
2022-08-21T05:59:00.660Z,18.77
2022-08-21T06:00:00.699Z,18.81
2022-08-21T06:01:00.641Z,18.81
2022-08-21T06:02:05.377Z,18.86
2022-08-21T06:03:01.620Z,18.90
2022-08-21T06:04:01.569Z,18.96
2022-08-21T06:05:00.641Z,18.95
2022-08-21T06:06:00.589Z,19.00
2022-08-21T06:07:00.557Z,18.78
2022-08-21T06:08:00.540Z,18.80
2022-08-21T06:09:00.533Z,18.89
2022-08-21T06:10:00.575Z,18.84
2022-08-21T06:11:00.523Z,18.90
2022-08-21T06:12:00.508Z,18.92
2022-08-21T06:13:00.667Z,18.93
2022-08-21T06:14:00.532Z,18.95
2022-08-21T06:15:00.471Z,19.00
2022-08-21T06:16:00.466Z,19.09
2022-08-21T06:17:00.450Z,19.11
2022-08-21T06:18:00.444Z,19.14
2022-08-21T06:19:02.763Z,19.18
2022-08-21T06:20:00.425Z,19.19
2022-08-21T06:21:00.938Z,19.22
2022-08-21T06:22:00.401Z,19.19
2022-08-21T06:23:00.622Z,19.15
2022-08-21T06:24:00.430Z,19.07
2022-08-21T06:25:00.374Z,18.99
2022-08-21T06:26:00.364Z,18.99
2022-08-21T06:27:00.345Z,19.15
2022-08-21T06:28:00.322Z,19.26
2022-08-21T06:29:00.361Z,19.30
2022-08-21T06:30:00.338Z,19.40
2022-08-21T06:31:00.311Z,19.49
2022-08-21T06:32:00.283Z,19.52
2022-08-21T06:33:00.579Z,19.49
2022-08-21T06:34:00.321Z,19.36
2022-08-21T06:35:00.259Z,19.22
2022-08-21T06:36:00.257Z,19.16
2022-08-21T06:37:00.238Z,19.15
2022-08-21T06:38:00.203Z,19.18
2022-08-21T06:39:00.250Z,19.21
2022-08-21T06:40:00.286Z,19.22
2022-08-21T06:41:00.193Z,19.19
2022-08-21T06:42:00.189Z,19.27
2022-08-21T06:43:01.421Z,19.34
2022-08-21T06:44:00.172Z,19.36
2022-08-21T06:45:00.141Z,19.31
2022-08-21T06:46:00.120Z,19.16
2022-08-21T06:47:00.122Z,19.12
2022-08-21T06:48:00.120Z,19.21
2022-08-21T06:49:00.175Z,19.11
2022-08-21T06:50:00.112Z,19.15
2022-08-21T06:51:00.098Z,19.11
2022-08-21T06:52:00.040Z,19.19
2022-08-21T06:53:00.146Z,19.11
2022-08-21T06:54:00.089Z,19.11
2022-08-21T06:55:00.031Z,19.15
2022-08-21T06:55:59.997Z,19.29
2022-08-21T06:56:59.999Z,19.16
2022-08-21T06:57:59.993Z,19.11
2022-08-21T06:59:00.027Z,19.18
2022-08-21T06:59:59.979Z,19.24
2022-08-21T07:01:01.248Z,19.30
2022-08-21T07:01:59.986Z,19.27
2022-08-21T07:03:00.181Z,19.26
2022-08-21T07:03:59.975Z,19.31
2022-08-21T07:04:59.912Z,19.41
2022-08-21T07:05:59.890Z,19.51
2022-08-21T07:06:59.895Z,19.49
2022-08-21T07:07:59.880Z,19.54
2022-08-21T07:08:59.910Z,19.48
2022-08-21T07:09:59.839Z,19.45
2022-08-21T07:10:59.825Z,19.31
2022-08-21T07:11:59.831Z,19.44
2022-08-21T07:13:01.297Z,19.44
2022-08-21T07:13:59.852Z,19.44
2022-08-21T07:14:59.791Z,19.47
2022-08-21T07:16:03.933Z,19.55
2022-08-21T07:16:59.770Z,19.55
2022-08-21T07:17:59.779Z,19.52
2022-08-21T07:18:59.754Z,19.58
2022-08-21T07:19:59.780Z,19.52
2022-08-21T07:20:59.726Z,19.56
2022-08-21T07:21:59.716Z,19.44
2022-08-21T07:22:59.858Z,19.52
2022-08-21T07:23:59.689Z,19.51
2022-08-21T07:24:59.732Z,19.62
2022-08-21T07:25:59.671Z,19.58
2022-08-21T07:26:59.652Z,19.44
2022-08-21T07:27:59.655Z,19.48
2022-08-21T07:28:59.630Z,19.55
2022-08-21T07:29:59.660Z,19.56
2022-08-21T07:30:59.606Z,19.52
2022-08-21T07:31:59.608Z,19.63
2022-08-21T07:32:59.803Z,19.67
2022-08-21T07:33:59.602Z,19.67
2022-08-21T07:34:59.600Z,19.69
2022-08-21T07:35:59.555Z,19.70
2022-08-21T07:36:59.548Z,19.55
2022-08-21T07:38:00.531Z,19.44
2022-08-21T07:38:59.526Z,19.48
2022-08-21T07:39:59.643Z,19.49
2022-08-21T07:40:59.478Z,19.56
2022-08-21T07:41:59.476Z,19.62
2022-08-21T07:42:59.689Z,19.73
2022-08-21T07:43:59.468Z,19.82
2022-08-21T07:44:59.495Z,19.84
2022-08-21T07:45:59.462Z,19.67
2022-08-21T07:46:59.434Z,19.79
2022-08-21T07:47:59.421Z,19.88
2022-08-21T07:48:59.406Z,19.99
2022-08-21T07:49:59.436Z,20.04
2022-08-21T07:50:59.381Z,20.13
2022-08-21T07:51:59.390Z,20.13
2022-08-21T07:52:59.564Z,20.22
2022-08-21T07:53:59.353Z,20.36
2022-08-21T07:55:02.865Z,20.32
2022-08-21T07:56:00.325Z,20.39
2022-08-21T07:56:59.327Z,20.52
2022-08-21T07:57:59.315Z,20.58
2022-08-21T07:58:59.313Z,20.67
2022-08-21T07:59:59.339Z,20.70
2022-08-21T08:00:59.328Z,20.66
2022-08-21T08:01:59.260Z,20.80
2022-08-21T08:02:59.480Z,20.93
2022-08-21T08:03:59.274Z,21.11
2022-08-21T08:04:59.296Z,21.17
2022-08-21T08:05:59.236Z,20.99
2022-08-21T08:06:59.198Z,21.00
2022-08-21T08:07:59.215Z,21.06
2022-08-21T08:08:59.200Z,20.99
2022-08-21T08:09:59.251Z,21.11
2022-08-21T08:10:59.158Z,21.27
2022-08-21T08:11:59.156Z,21.29
2022-08-21T08:12:59.335Z,21.39
2022-08-21T08:13:59.114Z,21.57
2022-08-21T08:14:59.172Z,21.62
2022-08-21T08:15:59.110Z,21.61
2022-08-21T08:16:59.107Z,21.62
2022-08-21T08:17:59.086Z,21.52
2022-08-21T08:18:59.090Z,21.30
2022-08-21T08:19:59.108Z,21.37
2022-08-21T08:20:59.052Z,21.40
2022-08-21T08:21:59.055Z,21.57
2022-08-21T08:22:59.034Z,21.64
2022-08-21T08:23:59.021Z,21.79
2022-08-21T08:24:59.079Z,21.95
2022-08-21T08:25:59.028Z,21.96
2022-08-21T08:26:58.987Z,22.00
2022-08-21T08:27:58.991Z,21.99
2022-08-21T08:28:58.975Z,22.02
2022-08-21T08:29:58.995Z,21.85
2022-08-21T08:30:58.958Z,21.77
2022-08-21T08:31:58.930Z,21.70
2022-08-21T08:32:59.112Z,21.75
2022-08-21T08:33:58.916Z,21.80
2022-08-21T08:34:58.931Z,21.83
2022-08-21T08:36:00.491Z,21.77
2022-08-21T08:36:58.902Z,21.75
2022-08-21T08:37:58.866Z,21.79
2022-08-21T08:38:58.833Z,21.79
2022-08-21T08:39:58.951Z,21.88
2022-08-21T08:40:58.799Z,21.98
2022-08-21T08:41:58.893Z,22.08
2022-08-21T08:42:58.914Z,22.15
2022-08-21T08:43:58.780Z,22.02
2022-08-21T08:44:58.829Z,21.83
2022-08-21T08:45:58.772Z,21.85
2022-08-21T08:46:58.777Z,21.82
2022-08-21T08:47:58.746Z,21.76
2022-08-21T08:48:58.719Z,21.82
2022-08-21T08:49:58.755Z,21.77
2022-08-21T08:50:58.730Z,21.93
2022-08-21T08:51:58.726Z,21.85
2022-08-21T08:52:58.872Z,21.77
2022-08-21T08:53:58.694Z,21.80
2022-08-21T08:54:58.710Z,21.99
2022-08-21T08:55:58.654Z,22.23
2022-08-21T08:56:58.649Z,22.35
2022-08-21T08:57:58.620Z,22.30
2022-08-21T08:58:58.635Z,22.35
2022-08-21T08:59:58.661Z,22.28
2022-08-21T09:00:58.664Z,22.14
2022-08-21T09:01:58.575Z,22.08
2022-08-21T09:02:58.750Z,22.22
2022-08-21T09:03:58.576Z,22.41
2022-08-21T09:04:58.592Z,22.33
2022-08-21T09:05:58.553Z,22.17
2022-08-21T09:06:58.529Z,22.14
2022-08-21T09:07:58.551Z,22.29
2022-08-21T09:08:58.495Z,22.45
2022-08-21T09:09:58.564Z,22.51
2022-08-21T09:10:58.476Z,22.36
2022-08-21T09:11:58.456Z,22.45
2022-08-21T09:12:58.686Z,22.59
2022-08-21T09:13:58.470Z,22.69
2022-08-21T09:14:58.464Z,22.93
2022-08-21T09:15:58.441Z,23.06
2022-08-21T09:16:58.430Z,23.05
2022-08-21T09:17:58.405Z,22.96
2022-08-21T09:18:58.395Z,22.99
2022-08-21T09:19:58.434Z,23.28
2022-08-21T09:20:58.374Z,23.63
2022-08-21T09:21:58.371Z,23.96
2022-08-21T09:22:58.515Z,23.69
2022-08-21T09:23:58.350Z,23.84
2022-08-21T09:24:58.373Z,24.06
2022-08-21T09:25:58.314Z,23.84
2022-08-21T09:26:58.297Z,23.25
2022-08-21T09:27:58.314Z,22.94
2022-08-21T09:28:58.296Z,23.05
2022-08-21T09:29:58.331Z,23.18
2022-08-21T09:30:58.266Z,23.51
2022-08-21T09:31:58.254Z,23.76
2022-08-21T09:32:58.460Z,23.74
2022-08-21T09:33:58.241Z,23.84
2022-08-21T09:34:58.301Z,23.91
2022-08-21T09:35:58.225Z,23.73
2022-08-21T09:36:58.220Z,23.80
2022-08-21T09:37:58.187Z,24.05
2022-08-21T09:38:58.171Z,24.03
2022-08-21T09:39:58.271Z,24.20
2022-08-21T09:40:58.135Z,24.17
2022-08-21T09:41:58.129Z,24.16
2022-08-21T09:42:58.266Z,24.13
2022-08-21T09:43:58.138Z,24.38
2022-08-21T09:44:58.154Z,24.29
2022-08-21T09:45:58.096Z,24.33
2022-08-21T09:46:58.097Z,24.53
2022-08-21T09:47:58.069Z,24.76
2022-08-21T09:48:58.057Z,24.91
2022-08-21T09:49:58.122Z,25.38
2022-08-21T09:50:58.043Z,25.63
2022-08-21T09:51:58.061Z,25.62
2022-08-21T09:52:58.232Z,25.84
2022-08-21T09:53:58.011Z,26.21
2022-08-21T09:54:58.077Z,25.70
2022-08-21T09:55:57.987Z,26.05
2022-08-21T09:56:57.976Z,26.52
2022-08-21T09:57:57.993Z,26.70
2022-08-21T09:58:57.931Z,26.66
2022-08-21T09:59:57.968Z,26.58
2022-08-21T10:00:58.001Z,26.28
2022-08-21T10:01:57.909Z,26.81
2022-08-21T10:02:58.046Z,27.05
2022-08-21T10:03:57.906Z,27.49
2022-08-21T10:04:57.937Z,27.95
2022-08-21T10:05:57.875Z,27.44
2022-08-21T10:06:58.197Z,27.42
2022-08-21T10:07:57.868Z,27.75
2022-08-21T10:08:57.848Z,28.26
2022-08-21T10:09:57.877Z,28.12
2022-08-21T10:10:57.833Z,28.63
2022-08-21T10:11:57.777Z,28.35
2022-08-21T10:12:57.993Z,27.64
2022-08-21T10:13:57.777Z,27.44
2022-08-21T10:14:57.827Z,26.85
2022-08-21T10:15:57.772Z,26.02
2022-08-21T10:16:57.762Z,26.05
2022-08-21T10:17:57.764Z,25.77
2022-08-21T10:18:57.740Z,25.35
2022-08-21T10:19:57.760Z,25.26
2022-08-21T10:20:57.740Z,25.07
2022-08-21T10:21:57.687Z,25.26
2022-08-21T10:22:57.821Z,25.44
2022-08-21T10:23:57.657Z,25.66
2022-08-21T10:24:57.730Z,25.54
2022-08-21T10:26:13.324Z,25.29
2022-08-21T10:26:58.649Z,25.04
2022-08-21T10:27:57.658Z,25.18
2022-08-21T10:28:57.617Z,25.29
2022-08-21T10:29:57.652Z,25.06
2022-08-21T10:30:57.630Z,25.63
2022-08-21T10:31:57.573Z,25.59
2022-08-21T10:32:57.760Z,25.70
2022-08-21T10:33:57.567Z,25.75
2022-08-21T10:34:57.609Z,25.48
2022-08-21T10:35:57.545Z,25.28
2022-08-21T10:36:57.525Z,24.43
2022-08-21T10:37:57.546Z,24.33
2022-08-21T10:39:17.712Z,24.26
2022-08-21T10:39:58.636Z,23.91
2022-08-21T10:40:57.459Z,23.74
2022-08-21T10:41:59.398Z,23.61
2022-08-21T10:42:57.664Z,23.55
2022-08-21T10:43:57.453Z,23.63
2022-08-21T10:44:57.469Z,23.88
2022-08-21T10:45:57.441Z,23.95
2022-08-21T10:46:57.434Z,23.98
2022-08-21T10:47:58.303Z,23.92
2022-08-21T10:48:57.393Z,23.91
2022-08-21T10:49:57.439Z,23.93
2022-08-21T10:50:57.376Z,23.95
2022-08-21T10:51:57.381Z,24.08
2022-08-21T10:52:57.567Z,24.36
2022-08-21T10:53:57.359Z,24.39
2022-08-21T10:54:57.375Z,24.60
2022-08-21T10:55:57.337Z,24.42
2022-08-21T10:56:57.302Z,24.26
2022-08-21T10:57:57.281Z,24.18
2022-08-21T10:58:57.303Z,23.88
2022-08-21T10:59:57.274Z,23.56
2022-08-21T11:00:57.420Z,23.37
2022-08-21T11:01:57.255Z,23.20
2022-08-21T11:02:57.373Z,23.06
2022-08-21T11:03:57.233Z,22.91
2022-08-21T11:04:57.216Z,22.93
2022-08-21T11:05:57.275Z,23.06
2022-08-21T11:06:57.194Z,23.10
2022-08-21T11:07:57.347Z,23.20
2022-08-21T11:08:57.169Z,23.08
2022-08-21T11:09:57.146Z,23.32
2022-08-21T11:10:59.974Z,23.59
2022-08-21T11:11:59.389Z,23.74
2022-08-21T11:12:58.325Z,23.73
2022-08-21T11:13:57.093Z,23.81
2022-08-21T11:14:57.101Z,23.96
2022-08-21T11:15:57.143Z,23.81
2022-08-21T11:16:57.082Z,23.80
2022-08-21T11:17:57.074Z,23.95
2022-08-21T11:18:57.069Z,23.77
2022-08-21T11:19:57.051Z,23.63
2022-08-21T11:20:57.093Z,23.31
2022-08-21T11:21:57.028Z,23.21
2022-08-21T11:23:01.485Z,23.27
2022-08-21T11:23:58.003Z,23.48
2022-08-21T11:24:56.989Z,23.63
2022-08-21T11:25:57.037Z,23.50
2022-08-21T11:26:56.963Z,23.37
2022-08-21T11:27:56.991Z,23.51
2022-08-21T11:28:56.930Z,23.68
2022-08-21T11:29:56.933Z,24.06
2022-08-21T11:30:56.953Z,24.23
2022-08-21T11:31:56.917Z,24.28
2022-08-21T11:32:57.026Z,24.21
2022-08-21T11:33:56.906Z,24.06
2022-08-21T11:34:56.881Z,24.33
2022-08-21T11:35:56.921Z,24.51
2022-08-21T11:36:56.835Z,24.57
2022-08-21T11:37:56.855Z,24.55
2022-08-21T11:38:56.821Z,24.43
2022-08-21T11:39:56.894Z,24.51
2022-08-21T11:40:56.859Z,24.50
2022-08-21T11:41:56.790Z,24.78
2022-08-21T11:42:56.913Z,24.70
2022-08-21T11:43:56.813Z,24.77
2022-08-21T11:44:56.774Z,25.03
2022-08-21T11:45:56.833Z,24.81
2022-08-21T11:46:56.759Z,24.63
2022-08-21T11:47:56.733Z,24.16
2022-08-21T11:48:56.770Z,24.08
2022-08-21T11:49:56.745Z,23.93
2022-08-21T11:50:56.726Z,23.69
2022-08-21T11:51:56.673Z,23.65
2022-08-21T11:52:56.674Z,23.51
2022-08-21T11:53:56.700Z,23.36
2022-08-21T11:54:56.657Z,23.20
2022-08-21T11:55:56.665Z,23.02
2022-08-21T11:56:56.620Z,22.90
2022-08-21T11:57:56.630Z,22.84
2022-08-21T11:58:57.808Z,22.81
2022-08-21T11:59:56.591Z,22.73
2022-08-21T12:00:56.635Z,22.69
2022-08-21T12:01:56.616Z,22.70
2022-08-21T12:02:56.665Z,22.72
2022-08-21T12:03:56.559Z,22.80
2022-08-21T12:04:56.553Z,22.93
2022-08-21T12:05:56.596Z,22.83
2022-08-21T12:06:56.545Z,22.84
2022-08-21T12:08:00.819Z,23.06
2022-08-21T12:08:56.492Z,23.65
2022-08-21T12:09:56.467Z,24.14
2022-08-21T12:10:56.517Z,24.95
2022-08-21T12:11:56.479Z,25.80
2022-08-21T12:12:56.448Z,26.73
2022-08-21T12:13:56.453Z,27.49
2022-08-21T12:14:56.451Z,27.58
2022-08-21T12:15:56.471Z,27.70
2022-08-21T12:16:56.424Z,27.54
2022-08-21T12:17:56.376Z,27.33
2022-08-21T12:18:56.393Z,26.99
2022-08-21T12:19:56.382Z,26.93
2022-08-21T12:20:56.357Z,26.58
2022-08-21T12:21:56.348Z,26.10
2022-08-21T12:22:56.491Z,25.63
2022-08-21T12:23:56.319Z,25.72
2022-08-21T12:24:56.368Z,26.36
2022-08-21T12:25:56.299Z,27.22
2022-08-21T12:26:56.300Z,27.78
2022-08-21T12:27:56.283Z,28.47
2022-08-21T12:28:56.256Z,29.31
2022-08-21T12:29:56.299Z,29.26
2022-08-21T12:30:58.160Z,29.23
2022-08-21T12:31:56.237Z,28.78
2022-08-21T12:32:56.237Z,27.85
2022-08-21T12:33:56.223Z,26.95
2022-08-21T12:34:56.283Z,26.84
2022-08-21T12:35:56.195Z,26.18
2022-08-21T12:36:56.202Z,26.43
2022-08-21T12:37:56.157Z,26.90
2022-08-21T12:38:56.140Z,27.29
2022-08-21T12:39:56.224Z,27.07
2022-08-21T12:40:56.138Z,26.83
2022-08-21T12:42:00.050Z,26.19
2022-08-21T12:42:59.127Z,26.07
2022-08-21T12:43:56.107Z,26.40
2022-08-21T12:44:56.149Z,26.92
2022-08-21T12:45:56.095Z,27.27
2022-08-21T12:46:56.069Z,26.95
2022-08-21T12:47:56.059Z,26.66
2022-08-21T12:48:56.061Z,25.70
2022-08-21T12:49:56.073Z,24.99
2022-08-21T12:50:56.030Z,24.45
2022-08-21T12:51:56.051Z,24.11